Time;durP1;ratioP1;P1;durP2;ratioP2;P2;SDS_P1;SDS_P2;PMS_P1;PMS_P2;Temp;Humidity;BMP_temperature;BMP_pressure;BME280_temperature;BME280_humidity;BME280_pressure;Samples;Min_cycle;Max_cycle;Signal;HPM_P1;HPM_P2
2021/07/01 03:17:23;;;;;;;;;;;;;;;6.08;78.55;99547.31;6280807;22;19919;-89
2021/07/01 03:19:48;;;;;;;;;;;;;;;6.10;78.37;99550.78;6279021;22;20245;-90
2021/07/01 03:22:14;;;;;;;;;;;;;;;6.12;78.70;99548.97;6254356;22;20311;-89
2021/07/01 03:27:14;;;;;;;;;;;;;;;;;;;;;
2021/07/01 03:44:26;;;;;;;;;;;;;;;6.73;92.69;99554.16;6288439;22;19919;-92
2021/07/01 03:46:51;;;;;;;;;;;;;;;6.76;88.88;99548.81;6279544;22;19915;-88
2021/07/01 03:49:17;;;;;;;;;;;;;;;6.67;88.02;99543.81;6279712;22;19915;-87
2021/07/01 03:51:46;;;;;;;;;;;;;;;6.60;88.49;99540.53;6280015;22;19919;-89
2021/07/01 03:54:11;;;;;;;;;;;;;;;6.62;88.14;99543.09;6253416;22;19961;-88
2021/07/01 03:56:42;;;;;;;;;;;;;;;6.62;89.05;99545.75;6253485;22;20251;-89
2021/07/01 03:59:11;;;;;;;;;;;;;;;6.82;93.54;99542.50;6280644;22;19915;-90
2021/07/01 04:01:36;;;;;;;;;;;;;;;7.14;95.86;99552.00;6253513;22;20232;-88
2021/07/01 04:04:02;;;;;;;;;;;;;;;7.42;98.10;99549.31;6254879;22;19969;-88
2021/07/01 04:06:27;;;;;;;;;;;;;;;7.36;93.46;99549.53;6255301;22;19915;-88
2021/07/01 04:08:55;;;;;;;;;;;;;;;7.19;93.24;99549.22;6281218;22;19911;-88
2021/07/01 04:11:21;;;;;;;;;;;;;;;7.21;92.37;99547.38;6281897;22;19915;-89
2021/07/01 04:13:49;;;;;;;;;;;;;;;7.16;90.90;99550.19;6282255;22;20003;-88
2021/07/01 04:16:14;;;;;;;;;;;;;;;7.15;90.12;99552.84;6281123;22;19919;-88
2021/07/01 04:18:40;;;;;;;;;;;;;;;7.08;90.28;99558.34;6254913;22;19911;-89
2021/07/01 04:21:05;;;;;;;;;;;;;;;7.11;90.12;99562.63;6254921;22;19915;-88
2021/07/01 04:23:33;;;;;;;;;;;;;;;7.05;90.34;99557.56;6281890;22;19912;-88
2021/07/01 04:25:59;;;;;;;;;;;;;;;7.09;90.36;99567.09;6255134;22;19919;-88
2021/07/01 04:28:24;;;;;;;;;;;;;;;7.13;90.58;99567.88;6281130;22;20273;-90
2021/07/01 04:30:50;;;;;;;;;;;;;;;7.09;90.71;99565.31;6281668;22;19907;-89
2021/07/01 04:33:30;;;;;;;;;;;;;;;7.04;89.97;99572.53;6254625;22;20276;-90
2021/07/01 04:35:56;;;;;;;;;;;;;;;7.18;90.23;99571.19;6281360;22;20322;-88
2021/07/01 04:38:22;;;;;;;;;;;;;;;7.13;90.61;99559.97;6281271;22;19915;-89
2021/07/01 04:40:47;;;;;;;;;;;;;;;7.15;89.27;99559.00;6281643;22;19915;-89
2021/07/01 04:43:13;;;;;;;;;;;;;;;7.12;89.46;99558.25;6281195;22;19923;-88
2021/07/01 04:45:38;;;;;;;;;;;;;;;7.18;88.99;99558.03;6281733;22;19915;-87
2021/07/01 07:51:27;;;;;;;;;;;;;;;8.38;88.77;99643.63;6281355;22;20215;-87
2021/07/01 07:53:55;;;;;;;;;;;;;;;8.48;87.90;99633.63;6253267;22;20243;-87
2021/07/01 07:56:36;;;;;;;;;;;;;;;8.50;89.72;99637.06;6280925;22;19950;-87
2021/07/01 07:59:02;;;;;;;;;;;;;;;8.44;89.27;99632.88;6281496;22;19919;-89
2021/07/01 08:01:30;;;;;;;;;;;;;;;8.60;88.24;99638.47;6282009;22;19945;-86
2021/07/01 08:03:56;;;;;;;;;;;;;;;8.57;88.69;99632.41;6281567;22;19939;-87
2021/07/01 08:06:23;;;;;;;;;;;;;;;8.62;87.77;99635.75;6280868;22;19990;-88
2021/07/01 08:08:53;;;;;;;;;;;;;;;8.58;88.21;99631.50;6281104;22;19911;-87
2021/07/01 08:11:20;;;;;;;;;;;;;;;8.56;88.06;99635.97;6254449;22;19919;-87
2021/07/01 08:13:46;;;;;;;;;;;;;;;8.53;88.44;99637.78;6254889;22;20001;-87
2021/07/01 08:16:12;;;;;;;;;;;;;;;8.67;87.39;99634.66;6254899;22;19927;-87
2021/07/01 08:18:39;;;;;;;;;;;;;;;8.61;87.68;99639.31;6254803;22;19914;-87
2021/07/01 08:21:11;;;;;;;;;;;;;;;8.64;87.87;99637.41;6280449;22;19942;-88
2021/07/01 08:23:39;;;;;;;;;;;;;;;8.84;88.17;99630.50;6280863;22;19915;-87
2021/07/01 08:26:05;;;;;;;;;;;;;;;8.96;87.55;99629.19;6281059;22;19926;-85
2021/07/01 08:28:31;;;;;;;;;;;;;;;9.08;87.00;99634.00;6281725;22;19915;-86
2021/07/01 08:31:05;;;;;;;;;;;;;;;8.90;87.80;99636.44;6281858;22;19938;-88
2021/07/01 08:33:34;;;;;;;;;;;;;;;9.19;86.83;99634.44;6280703;22;19922;-87
2021/07/01 08:36:01;;;;;;;;;;;;;;;8.96;93.74;99642.41;6280517;22;20181;-86
2021/07/01 08:38:26;;;;;;;;;;;;;;;9.05;88.46;99639.41;6253707;22;19916;-87
2021/07/01 08:40:59;;;;;;;;;;;;;;;9.18;85.88;99632.72;6254908;22;19922;-87
2021/07/01 08:43:25;;;;;;;;;;;;;;;9.01;86.30;99641.28;6280987;22;19923;-86
2021/07/01 08:46:11;;;;;;;;;;;;;;;9.23;86.26;99646.59;6255055;22;19916;-86
2021/07/01 08:48:55;;;;;;;;;;;;;;;9.22;85.79;99651.94;6253673;22;19990;-86
2021/07/01 08:51:26;;;;;;;;;;;;;;;9.23;86.18;99649.25;6281043;22;20371;-87
2021/07/01 08:54:10;;;;;;;;;;;;;;;9.32;85.65;99648.03;6254447;22;19923;-86
2021/07/01 08:56:37;;;;;;;;;;;;;;;9.28;86.99;99651.72;6281663;22;19930;-86
2021/07/01 08:59:05;;;;;;;;;;;;;;;9.33;86.84;99648.88;6279947;22;20215;-86
2021/07/01 09:01:30;;;;;;;;;;;;;;;9.51;86.61;99655.22;6253959;22;19946;-86
2021/07/01 09:06:33;;;;;;;;;;;;;;;9.35;87.31;99657.59;6280696;22;20310;-87
2021/07/01 09:09:02;;;;;;;;;;;;;;;9.47;87.20;99653.63;6280443;22;19986;-87
2021/07/01 09:11:28;;;;;;;;;;;;;;;9.36;86.59;99649.63;6254443;22;19926;-87
2021/07/01 09:13:57;;;;;;;;;;;;;;;9.51;86.18;99658.72;6253183;22;19916;-87
2021/07/01 09:16:23;;;;;;;;;;;;;;;9.43;85.66;99663.47;6280729;22;19926;-87
2021/07/01 09:18:49;;;;;;;;;;;;;;;9.58;84.93;99654.91;6253810;22;19919;-86
2021/07/01 09:21:14;;;;;;;;;;;;;;;9.56;84.69;99654.13;6254385;22;19915;-86
2021/07/01 09:23:45;;;;;;;;;;;;;;;9.57;85.53;99650.56;6253698;22;19918;-87
2021/07/01 09:26:18;;;;;;;;;;;;;;;9.69;84.29;99651.81;6253256;22;19925;-87
2021/07/01 09:28:43;;;;;;;;;;;;;;;9.63;85.87;99657.38;6253649;22;19915;-86
2021/07/01 09:31:09;;;;;;;;;;;;;;;9.57;85.27;99662.91;6253990;22;19944;-86
2021/07/01 09:33:35;;;;;;;;;;;;;;;9.56;85.12;99667.34;6253187;22;19923;-86
2021/07/01 09:36:00;;;;;;;;;;;;;;;9.67;85.86;99658.09;6253982;22;20280;-86
2021/07/01 09:38:26;;;;;;;;;;;;;;;9.67;85.53;99663.38;6280291;22;19974;-87
2021/07/01 09:40:52;;;;;;;;;;;;;;;9.73;84.87;99665.78;6253813;22;19915;-88
2021/07/01 09:43:21;;;;;;;;;;;;;;;9.78;85.20;99666.44;6253759;22;19953;-86
2021/07/01 09:45:49;;;;;;;;;;;;;;;9.77;85.20;99668.22;6280181;22;19919;-86
2021/07/01 09:48:17;;;;;;;;;;;;;;;9.71;86.23;99662.34;6253237;22;19957;-86
2021/07/01 09:50:48;;;;;;;;;;;;;;;9.81;84.23;99669.84;6280236;22;19919;-85
2021/07/01 09:53:16;;;;;;;;;;;;;;;9.76;85.35;99669.16;6254054;22;19915;-85
2021/07/01 09:55:42;;;;;;;;;;;;;;;9.82;85.07;99673.34;6252853;22;19915;-85
2021/07/01 09:58:10;;;;;;;;;;;;;;;9.85;84.18;99665.28;6253289;22;19915;-85
2021/07/01 10:00:36;;;;;;;;;;;;;;;9.93;83.37;99676.41;6279731;22;20342;-86
2021/07/01 10:03:03;;;;;;;;;;;;;;;9.97;83.18;99675.34;6280149;22;19915;-86
2021/07/01 10:05:28;;;;;;;;;;;;;;;9.92;83.53;99673.81;6280372;22;20231;-86
2021/07/01 10:07:54;;;;;;;;;;;;;;;10.04;82.56;99672.44;6279794;22;19915;-86
2021/07/01 10:10:20;;;;;;;;;;;;;;;9.98;83.50;99674.41;6253524;22;20239;-86
2021/07/01 10:12:51;;;;;;;;;;;;;;;9.81;84.88;99675.13;6279417;22;19930;-85
2021/07/01 10:15:26;;;;;;;;;;;;;;;9.67;84.25;99677.50;6280172;22;19962;-86
2021/07/01 10:18:02;;;;;;;;;;;;;;;9.74;84.95;99664.88;6254760;22;19919;-86
2021/07/01 10:20:32;;;;;;;;;;;;;;;9.86;84.23;99669.66;6280825;22;19915;-86
2021/07/01 10:22:58;;;;;;;;;;;;;;;9.79;84.70;99674.31;6253595;22;19915;-86
2021/07/01 10:25:28;;;;;;;;;;;;;;;9.82;84.26;99665.41;6253319;22;20306;-86
2021/07/01 10:27:54;;;;;;;;;;;;;;;9.82;83.57;99668.91;6279853;22;19938;-85
2021/07/01 10:30:22;;;;;;;;;;;;;;;9.74;84.25;99665.72;6253185;22;20292;-85
2021/07/01 10:32:49;;;;;;;;;;;;;;;9.69;84.48;99674.78;6252907;22;19939;-87
2021/07/01 10:35:22;;;;;;;;;;;;;;;9.98;83.86;99666.47;6253145;22;19951;-86
2021/07/01 10:37:59;;;;;;;;;;;;;;;9.87;83.48;99670.50;6253642;22;20069;-86
2021/07/01 10:40:24;;;;;;;;;;;;;;;9.80;83.92;99676.03;6253309;22;19916;-85
2021/07/01 10:42:50;;;;;;;;;;;;;;;9.89;83.31;99673.94;6252893;22;19977;-88
2021/07/01 10:45:16;;;;;;;;;;;;;;;9.73;84.29;99674.59;6279468;22;19919;-86
2021/07/01 10:47:42;;;;;;;;;;;;;;;9.80;83.53;99669.91;6252984;22;19972;-87
2021/07/01 10:50:20;;;;;;;;;;;;;;;9.57;85.04;99671.72;6280567;22;19915;-86
2021/07/01 10:52:46;;;;;;;;;;;;;;;9.82;84.10;99671.53;6279861;22;20220;-86
2021/07/01 10:55:12;;;;;;;;;;;;;;;9.96;83.90;99670.97;6280045;22;19978;-88
2021/07/01 10:57:55;;;;;;;;;;;;;;;9.90;83.80;99673.03;6253070;22;19994;-86
2021/07/01 11:00:53;;;;;;;;;;;;;;;9.89;84.31;99674.81;6253049;22;19916;-86
2021/07/01 11:03:21;;;;;;;;;;;;;;;9.64;84.83;99673.16;6187246;22;19919;-86
2021/07/01 11:05:46;;;;;;;;;;;;;;;9.85;84.81;99670.56;6253212;22;19915;-85
2021/07/01 11:08:25;;;;;;;;;;;;;;;9.94;84.45;99670.19;6253078;22;19916;-86
2021/07/01 11:10:51;;;;;;;;;;;;;;;10.03;83.11;99670.72;6253501;22;20313;-86
2021/07/01 11:13:17;;;;;;;;;;;;;;;9.85;83.89;99677.66;6281210;22;19915;-85
2021/07/01 11:16:15;;;;;;;;;;;;;;;9.68;84.48;99676.53;6282227;22;20351;-85
2021/07/01 11:18:41;;;;;;;;;;;;;;;9.83;84.14;99685.66;6189413;22;20419;-85
2021/07/01 11:21:20;;;;;;;;;;;;;;;9.86;84.44;99680.25;6254578;22;19987;-85
2021/07/01 11:23:47;;;;;;;;;;;;;;;9.75;85.46;99675.38;6255432;22;19915;-85
2021/07/01 11:26:24;;;;;;;;;;;;;;;9.85;84.09;99682.94;6255035;22;19911;-86
2021/07/01 11:28:50;;;;;;;;;;;;;;;9.73;84.85;99684.28;6253838;22;19915;-87
2021/07/01 11:31:15;;;;;;;;;;;;;;;9.95;83.79;99682.47;6281117;22;19915;-85
2021/07/01 11:36:08;;;;;;;;;;;;;;;10.06;84.88;99691.78;6280916;22;19945;-88
2021/07/01 11:38:34;;;;;;;;;;;;;;;10.06;84.43;99681.19;6281523;22;19919;-86
2021/07/01 11:41:02;;;;;;;;;;;;;;;10.07;83.99;99685.53;6255079;22;20026;-86
2021/07/01 11:43:28;;;;;;;;;;;;;;;9.95;84.54;99690.41;6281441;22;19915;-86
2021/07/01 11:45:54;;;;;;;;;;;;;;;10.18;82.92;99686.81;6281273;22;19915;-86
2021/07/01 11:48:22;;;;;;;;;;;;;;;10.14;84.01;99694.94;6255340;22;19925;-86
2021/07/01 11:50:49;;;;;;;;;;;;;;;10.02;83.99;99684.88;6281703;22;19915;-89
2021/07/01 11:53:14;;;;;;;;;;;;;;;10.11;83.70;99682.69;6281611;22;19912;-86
2021/07/01 11:55:40;;;;;;;;;;;;;;;10.21;82.74;99683.19;6279474;22;20352;-90
2021/07/01 11:58:06;;;;;;;;;;;;;;;10.06;83.38;99687.31;6192113;22;1996835;-87
2021/07/01 12:00:40;;;;;;;;;;;;;;;10.06;83.63;99686.47;6253790;22;19912;-86
2021/07/01 12:03:06;;;;;;;;;;;;;;;9.93;83.55;99680.84;6253800;22;19923;-86
2021/07/01 12:05:33;;;;;;;;;;;;;;;10.20;83.50;99681.44;6254265;22;19912;-87
2021/07/01 12:07:59;;;;;;;;;;;;;;;10.22;83.90;99682.22;6281043;22;20211;-85
2021/07/01 12:10:25;;;;;;;;;;;;;;;10.08;84.36;99679.31;6253729;22;19941;-85
2021/07/01 12:12:51;;;;;;;;;;;;;;;10.04;83.65;99681.25;6281105;22;19957;-86
2021/07/01 12:15:17;;;;;;;;;;;;;;;10.12;83.59;99686.22;6280686;22;19915;-84
2021/07/01 12:18:04;;;;;;;;;;;;;;;10.06;84.00;99676.75;6281459;22;19974;-85
2021/07/01 12:20:30;;;;;;;;;;;;;;;9.99;84.29;99673.50;6280661;22;19915;-86
2021/07/01 12:22:56;;;;;;;;;;;;;;;10.20;83.01;99673.50;6278823;22;19977;-85
2021/07/01 12:25:25;;;;;;;;;;;;;;;10.34;83.28;99681.75;6280479;22;19982;-85
2021/07/01 12:28:02;;;;;;;;;;;;;;;10.27;83.40;99680.25;6279138;22;19912;-85
2021/07/01 12:30:46;;;;;;;;;;;;;;;10.38;83.62;99671.88;6279701;22;19919;-85
2021/07/01 12:33:34;;;;;;;;;;;;;;;9.90;84.60;99676.53;6280246;22;19942;-86
2021/07/01 12:36:10;;;;;;;;;;;;;;;9.84;84.53;99670.63;6263250;22;19987;-86
2021/07/01 12:38:37;;;;;;;;;;;;;;;10.05;85.95;99674.16;6280377;22;19998;-85
2021/07/01 12:41:07;;;;;;;;;;;;;;;10.15;85.51;99671.06;6253452;22;19923;-85
2021/07/01 12:43:47;;;;;;;;;;;;;;;10.26;83.57;99677.66;6280285;22;20208;-85
2021/07/01 12:46:32;;;;;;;;;;;;;;;10.14;83.73;99676.41;6281461;22;19974;-86
2021/07/01 12:48:58;;;;;;;;;;;;;;;10.11;83.89;99669.44;6280810;22;20445;-86
2021/07/01 12:51:42;;;;;;;;;;;;;;;10.25;83.86;99663.56;6254719;22;19973;-86
2021/07/01 12:54:30;;;;;;;;;;;;;;;10.15;84.18;99676.34;6281205;22;19914;-87
2021/07/01 12:56:56;;;;;;;;;;;;;;;10.23;83.79;99673.38;6276982;22;19919;-87
2021/07/01 12:59:22;;;;;;;;;;;;;;;10.14;83.88;99679.06;6281089;22;20199;-86
2021/07/01 13:01:48;;;;;;;;;;;;;;;10.09;84.01;99681.06;6281020;22;19968;-86
2021/07/01 13:04:20;;;;;;;;;;;;;;;9.84;85.83;99687.34;6254805;22;19930;-86
2021/07/01 13:06:46;;;;;;;;;;;;;;;9.84;86.25;99682.06;6280583;22;19919;-86
2021/07/01 13:09:26;;;;;;;;;;;;;;;9.84;85.70;99676.78;6254219;22;19915;-86
2021/07/01 13:11:52;;;;;;;;;;;;;;;9.78;86.73;99692.91;6253636;22;19911;-87
2021/07/01 13:14:17;;;;;;;;;;;;;;;9.79;86.42;99684.91;6280675;22;19969;-87
2021/07/01 13:16:58;;;;;;;;;;;;;;;9.85;85.90;99688.25;6253904;22;19926;-86
2021/07/01 13:19:23;;;;;;;;;;;;;;;10.05;84.75;99679.44;6280419;22;20449;-86
2021/07/01 13:21:56;;;;;;;;;;;;;;;9.76;86.69;99681.53;6280363;22;19915;-86
2021/07/01 13:24:21;;;;;;;;;;;;;;;9.88;86.56;99680.19;6253783;22;20307;-86
2021/07/01 13:26:47;;;;;;;;;;;;;;;9.91;86.68;99688.00;6253751;22;19911;-86
2021/07/01 13:29:13;;;;;;;;;;;;;;;9.95;85.86;99694.84;6253681;22;19973;-86
2021/07/01 13:31:38;;;;;;;;;;;;;;;10.04;86.33;99697.13;6280861;22;19915;-87
2021/07/01 13:34:06;;;;;;;;;;;;;;;10.26;86.19;99698.84;6253757;22;20181;-87
2021/07/01 13:36:32;;;;;;;;;;;;;;;10.09;86.38;99696.94;6253439;22;19926;-87
2021/07/01 13:38:57;;;;;;;;;;;;;;;10.18;84.53;99697.41;6280565;22;19915;-87
2021/07/01 13:41:26;;;;;;;;;;;;;;;10.20;84.31;99700.00;6279996;22;20058;-87
2021/07/01 13:43:52;;;;;;;;;;;;;;;10.06;85.61;99702.34;6280303;22;20276;-87
2021/07/01 13:46:20;;;;;;;;;;;;;;;10.16;84.90;99698.38;6280402;22;19915;-87
2021/07/01 13:48:45;;;;;;;;;;;;;;;10.05;85.01;99703.28;6280843;22;19934;-86
2021/07/01 13:51:11;;;;;;;;;;;;;;;9.97;85.96;99698.28;6253654;22;20276;-87
2021/07/01 13:53:37;;;;;;;;;;;;;;;9.99;85.53;99699.97;6253249;22;19973;-86
2021/07/01 13:56:06;;;;;;;;;;;;;;;10.02;86.80;99692.81;6279893;22;19916;-86
2021/07/01 13:58:38;;;;;;;;;;;;;;;9.95;86.36;99690.41;6253718;22;19965;-86
2021/07/01 14:01:05;;;;;;;;;;;;;;;9.94;86.04;99696.66;6253488;22;19919;-86
2021/07/01 14:03:32;;;;;;;;;;;;;;;9.98;85.75;99694.72;6279849;22;20381;-86
2021/07/01 14:06:01;;;;;;;;;;;;;;;9.94;86.90;99693.13;6253194;22;19989;-85
2021/07/01 14:08:45;;;;;;;;;;;;;;;10.02;86.00;99690.16;6279924;22;19979;-86
2021/07/01 14:11:11;;;;;;;;;;;;;;;10.05;86.14;99692.69;6253732;22;19915;-85
2021/07/01 14:13:37;;;;;;;;;;;;;;;10.18;84.96;99693.91;6252363;22;19919;-86
2021/07/01 14:16:03;;;;;;;;;;;;;;;10.29;84.21;99691.66;6253795;22;19951;-85
2021/07/01 14:18:28;;;;;;;;;;;;;;;10.32;84.72;99688.00;6253218;22;19915;-85
2021/07/01 14:20:54;;;;;;;;;;;;;;;10.21;84.84;99691.13;6253328;22;19933;-85
2021/07/01 14:23:20;;;;;;;;;;;;;;;10.36;84.12;99679.88;6252147;22;19911;-85
2021/07/01 14:25:45;;;;;;;;;;;;;;;10.37;83.81;99680.75;6252739;22;19915;-86
2021/07/01 14:28:15;;;;;;;;;;;;;;;10.04;85.26;99678.59;6252892;22;19915;-89
2021/07/01 14:30:42;;;;;;;;;;;;;;;10.06;85.85;99671.44;6280063;22;19911;-86
2021/07/01 14:33:24;;;;;;;;;;;;;;;10.07;85.83;99677.59;6279197;22;19926;-86
2021/07/01 14:35:58;;;;;;;;;;;;;;;13.16;77.23;99669.72;6279040;22;19915;-88
2021/07/01 14:38:31;;;;;;;;;;;;;;;11.11;85.05;99673.91;6279519;22;19915;-85
2021/07/01 14:41:04;;;;;;;;;;;;;;;10.80;86.19;99675.31;6252995;22;20297;-87
2021/07/01 14:43:39;;;;;;;;;;;;;;;10.61;85.28;99673.53;6280084;22;20416;-86
2021/07/01 14:46:12;;;;;;;;;;;;;;;10.76;84.81;99676.41;6253236;22;19989;-86
2021/07/01 14:48:38;;;;;;;;;;;;;;;10.49;86.09;99676.69;6252919;22;19921;-86
2021/07/01 14:51:17;;;;;;;;;;;;;;;10.41;85.45;99671.75;6279855;22;19911;-87
2021/07/01 14:53:42;;;;;;;;;;;;;;;10.50;84.48;99676.63;6279406;22;20275;-86
2021/07/01 14:56:08;;;;;;;;;;;;;;;10.49;85.57;99684.66;6279838;22;19919;-87
2021/07/01 14:58:52;;;;;;;;;;;;;;;10.32;85.46;99680.03;6254172;22;19922;-86
2021/07/01 15:01:18;;;;;;;;;;;;;;;10.16;86.02;99674.56;6252666;22;19922;-86
2021/07/01 15:03:43;;;;;;;;;;;;;;;10.39;84.82;99676.25;6279613;22;19911;-86
2021/07/01 15:06:09;;;;;;;;;;;;;;;10.37;84.71;99672.81;6253461;22;20284;-86
2021/07/01 15:08:35;;;;;;;;;;;;;;;10.42;84.26;99673.47;6253204;22;19930;-86
2021/07/01 15:11:21;;;;;;;;;;;;;;;10.50;84.06;99673.13;6252994;22;20292;-85
2021/07/01 15:13:47;;;;;;;;;;;;;;;10.32;84.51;99662.44;6253576;22;20188;-87
2021/07/01 15:16:22;;;;;;;;;;;;;;;10.40;84.35;99670.00;6279941;22;19915;-86
2021/07/01 15:18:50;;;;;;;;;;;;;;;10.53;83.14;99663.25;6279494;22;19915;-86
2021/07/01 15:21:16;;;;;;;;;;;;;;;10.35;84.77;99662.28;6279234;22;19982;-88
2021/07/01 15:23:54;;;;;;;;;;;;;;;10.33;84.76;99663.28;6279518;22;20449;-87
2021/07/01 15:26:20;;;;;;;;;;;;;;;10.35;84.01;99670.25;6279453;22;19926;-86
2021/07/01 15:28:45;;;;;;;;;;;;;;;10.32;85.18;99666.81;6279825;22;19912;-86
2021/07/01 15:31:11;;;;;;;;;;;;;;;10.34;85.24;99665.00;6252766;22;20491;-90
2021/07/01 15:33:36;;;;;;;;;;;;;;;10.35;84.53;99664.94;6278538;22;20205;-87
2021/07/01 15:36:01;;;;;;;;;;;;;;;10.19;84.42;99666.47;6278937;22;20181;-85
2021/07/01 15:38:27;;;;;;;;;;;;;;;10.26;84.59;99662.66;6278674;22;19911;-88
2021/07/01 15:40:52;;;;;;;;;;;;;;;10.34;82.91;99655.25;6280173;22;19915;-86
2021/07/01 15:43:17;;;;;;;;;;;;;;;10.36;83.57;99660.50;6252639;22;20138;-87
2021/07/01 15:45:45;;;;;;;;;;;;;;;10.32;83.71;99662.44;6279366;22;19958;-85
2021/07/01 15:48:12;;;;;;;;;;;;;;;10.29;83.36;99656.34;6278802;22;20295;-86
2021/07/01 15:50:38;;;;;;;;;;;;;;;10.35;83.52;99654.34;6278901;22;19911;-86
2021/07/01 15:53:04;;;;;;;;;;;;;;;10.29;83.59;99651.03;6278718;22;19926;-87
2021/07/01 15:55:29;;;;;;;;;;;;;;;10.29;83.64;99659.88;6252749;22;20284;-87
2021/07/01 15:57:54;;;;;;;;;;;;;;;10.36;83.61;99649.91;6253158;22;20212;-87
2021/07/01 16:00:20;;;;;;;;;;;;;;;10.21;83.87;99648.75;6280939;22;19915;-87
2021/07/01 16:02:45;;;;;;;;;;;;;;;10.20;83.97;99652.31;6253538;22;19938;-86
2021/07/01 16:05:14;;;;;;;;;;;;;;;10.17;84.10;99655.94;6280470;22;20217;-87
2021/07/01 16:07:39;;;;;;;;;;;;;;;10.20;83.87;99657.63;6254538;22;19921;-87
2021/07/01 16:10:05;;;;;;;;;;;;;;;10.16;84.24;99656.03;6282136;22;19915;-87
2021/07/01 16:12:32;;;;;;;;;;;;;;;10.21;84.20;99654.06;6280974;22;20272;-88
2021/07/01 16:14:57;;;;;;;;;;;;;;;10.13;84.37;99653.50;6254764;22;19943;-87
2021/07/01 16:17:23;;;;;;;;;;;;;;;10.07;84.82;99649.34;6280233;22;19926;-86
2021/07/01 16:19:49;;;;;;;;;;;;;;;10.11;85.09;99653.56;6280128;22;19926;-86
2021/07/01 16:22:18;;;;;;;;;;;;;;;10.15;84.94;99649.03;6280128;22;19911;-88
2021/07/01 16:24:46;;;;;;;;;;;;;;;10.12;85.04;99650.00;6280844;22;19990;-87
2021/07/01 16:27:12;;;;;;;;;;;;;;;10.07;84.74;99640.53;6280418;22;19915;-86
2021/07/01 16:29:38;;;;;;;;;;;;;;;10.13;86.23;99642.91;6280875;22;19911;-87
2021/07/01 16:32:03;;;;;;;;;;;;;;;10.16;84.65;99640.13;6279945;22;19923;-87
2021/07/01 16:34:29;;;;;;;;;;;;;;;10.26;84.09;99636.19;6255027;22;19919;-87
2021/07/01 16:36:54;;;;;;;;;;;;;;;10.16;84.54;99632.19;6253438;22;19968;-87
2021/07/01 16:39:20;;;;;;;;;;;;;;;10.29;83.74;99636.03;6279848;22;19916;-87
2021/07/01 16:41:46;;;;;;;;;;;;;;;10.19;84.27;99634.72;6280191;22;19933;-86
2021/07/01 16:44:11;;;;;;;;;;;;;;;10.14;84.80;99634.91;6280329;22;20177;-87
2021/07/01 16:46:38;;;;;;;;;;;;;;;10.21;85.25;99642.59;6281524;22;19939;-87
2021/07/01 16:49:07;;;;;;;;;;;;;;;10.28;83.99;99641.41;6280005;22;20292;-86
2021/07/01 16:51:34;;;;;;;;;;;;;;;10.23;84.30;99641.59;6280546;22;19985;-87
2021/07/01 16:54:02;;;;;;;;;;;;;;;10.23;84.18;99641.59;6253643;22;19921;-88
2021/07/01 16:56:34;;;;;;;;;;;;;;;10.29;84.01;99635.16;6280837;22;19977;-88
2021/07/01 16:59:02;;;;;;;;;;;;;;;10.26;84.44;99636.19;6281439;22;19915;-87
2021/07/01 17:01:28;;;;;;;;;;;;;;;10.59;83.00;99640.06;6253654;22;19923;-86
2021/07/01 17:03:53;;;;;;;;;;;;;;;10.40;83.65;99640.03;6254124;22;19911;-88
2021/07/01 17:06:20;;;;;;;;;;;;;;;10.39;84.61;99643.59;6281174;22;19925;-86
2021/07/01 17:08:46;;;;;;;;;;;;;;;10.34;83.88;99643.81;6253636;22;20239;-87
2021/07/01 17:11:11;;;;;;;;;;;;;;;10.39;83.17;99641.81;6280640;22;19915;-86
2021/07/01 17:13:37;;;;;;;;;;;;;;;10.28;83.80;99641.41;6280382;22;19911;-86
2021/07/01 17:16:07;;;;;;;;;;;;;;;10.22;84.47;99645.16;6280235;22;20177;-86
2021/07/01 17:18:35;;;;;;;;;;;;;;;10.16;84.77;99642.78;6281229;22;19938;-87
2021/07/01 17:21:01;;;;;;;;;;;;;;;10.27;84.59;99640.53;6253661;22;19973;-86
2021/07/01 17:23:27;;;;;;;;;;;;;;;10.17;83.97;99640.06;6279769;22;20253;-86
2021/07/01 17:25:53;;;;;;;;;;;;;;;10.30;83.50;99637.75;6280545;22;20176;-86
2021/07/01 17:28:20;;;;;;;;;;;;;;;10.31;84.90;99639.47;6279504;22;19919;-86
2021/07/01 17:30:46;;;;;;;;;;;;;;;10.32;85.14;99635.03;6280056;22;19938;-86
2021/07/01 17:33:16;;;;;;;;;;;;;;;10.33;83.46;99637.63;6279745;22;20335;-86
2021/07/01 17:35:41;;;;;;;;;;;;;;;10.27;83.77;99637.03;6279529;22;20013;-87
2021/07/01 17:38:07;;;;;;;;;;;;;;;10.34;83.80;99638.53;6280529;22;19946;-87
2021/07/01 17:40:35;;;;;;;;;;;;;;;10.33;83.60;99637.63;6253183;22;19911;-85
2021/07/01 17:43:04;;;;;;;;;;;;;;;10.31;85.23;99631.53;6279878;22;19916;-88
2021/07/01 17:45:30;;;;;;;;;;;;;;;10.31;84.25;99636.81;6252369;22;20344;-84
2021/07/01 17:47:56;;;;;;;;;;;;;;;10.57;83.03;99629.53;6279730;22;20251;-84
2021/07/01 17:50:21;;;;;;;;;;;;;;;10.44;83.71;99634.53;6253404;22;19969;-86
2021/07/01 17:52:47;;;;;;;;;;;;;;;10.32;84.38;99630.66;6252944;22;19922;-86
2021/07/01 17:55:12;;;;;;;;;;;;;;;10.35;84.00;99630.50;6278898;22;19915;-85
2021/07/01 17:57:38;;;;;;;;;;;;;;;10.38;84.25;99633.94;6279242;22;20347;-85
2021/07/01 18:00:04;;;;;;;;;;;;;;;10.33;84.02;99635.00;6278961;22;19969;-85
2021/07/01 18:02:29;;;;;;;;;;;;;;;10.43;83.91;99634.59;6251061;22;19915;-86
2021/07/01 18:04:55;;;;;;;;;;;;;;;10.42;84.03;99636.38;6252244;22;20243;-86
2021/07/01 18:07:20;;;;;;;;;;;;;;;10.31;84.10;99634.19;6252212;22;19965;-85
2021/07/01 18:09:46;;;;;;;;;;;;;;;10.28;84.43;99638.75;6252105;22;19961;-85
2021/07/01 18:12:13;;;;;;;;;;;;;;;10.31;84.42;99642.13;6253137;22;19915;-87
2021/07/01 18:14:48;;;;;;;;;;;;;;;10.41;83.68;99644.41;6252696;22;20422;-86
2021/07/01 18:17:14;;;;;;;;;;;;;;;10.41;83.45;99639.09;6251720;22;19919;-86
2021/07/01 18:19:39;;;;;;;;;;;;;;;10.35;83.37;99641.09;6253144;22;19921;-86
2021/07/01 18:22:05;;;;;;;;;;;;;;;10.43;83.16;99637.25;6279905;22;19977;-87
2021/07/01 18:24:30;;;;;;;;;;;;;;;10.58;82.90;99646.28;6252612;22;19934;-86
2021/07/01 18:26:56;;;;;;;;;;;;;;;10.33;83.14;99642.94;6252641;22;20314;-87
2021/07/01 18:29:21;;;;;;;;;;;;;;;10.38;83.53;99645.38;6252884;22;20187;-85
2021/07/01 18:31:47;;;;;;;;;;;;;;;10.40;83.58;99646.16;6278525;22;19950;-85
2021/07/01 18:34:12;;;;;;;;;;;;;;;10.34;83.26;99642.03;6279767;22;20173;-87
2021/07/01 18:36:37;;;;;;;;;;;;;;;10.34;83.18;99644.66;6252608;22;19926;-85
2021/07/01 18:39:03;;;;;;;;;;;;;;;10.35;82.99;99634.94;6252729;22;20041;-86
2021/07/01 18:41:29;;;;;;;;;;;;;;;10.35;82.86;99642.88;6253295;22;20375;-87
2021/07/01 18:43:56;;;;;;;;;;;;;;;10.31;83.06;99638.63;6279904;22;19915;-87
2021/07/01 18:46:21;;;;;;;;;;;;;;;10.39;83.04;99639.16;6252121;22;19915;-85
2021/07/01 18:48:47;;;;;;;;;;;;;;;10.45;82.68;99636.25;6251936;22;19918;-84
2021/07/01 18:51:14;;;;;;;;;;;;;;;10.47;82.58;99633.53;6252631;22;19922;-85
2021/07/01 18:53:39;;;;;;;;;;;;;;;10.48;82.08;99633.47;6278761;22;20207;-85
2021/07/01 18:56:05;;;;;;;;;;;;;;;10.51;82.39;99637.75;6279188;22;19943;-85
2021/07/01 18:58:31;;;;;;;;;;;;;;;10.41;82.69;99639.09;6251993;22;20295;-86
2021/07/01 19:00:57;;;;;;;;;;;;;;;10.45;82.87;99651.25;6251929;22;19928;-85
2021/07/01 19:03:23;;;;;;;;;;;;;;;10.32;83.06;99650.91;6278503;22;20185;-86
2021/07/01 19:05:48;;;;;;;;;;;;;;;10.26;84.10;99644.13;6278827;22;19923;-85
2021/07/01 19:08:14;;;;;;;;;;;;;;;10.26;84.02;99651.19;6279159;22;19990;-85
2021/07/01 19:10:39;;;;;;;;;;;;;;;10.20;84.52;99647.03;6279265;22;19950;-86
2021/07/01 19:13:07;;;;;;;;;;;;;;;10.26;84.18;99656.47;6279734;22;19926;-87
2021/07/01 19:15:32;;;;;;;;;;;;;;;10.26;84.48;99657.34;6252786;22;19919;-85
2021/07/01 19:17:58;;;;;;;;;;;;;;;10.26;84.58;99657.34;6279227;22;19923;-85
2021/07/01 19:20:25;;;;;;;;;;;;;;;10.23;84.49;99652.19;6252749;22;19919;-85
2021/07/01 19:22:51;;;;;;;;;;;;;;;10.23;84.55;99652.19;6279351;22;19915;-85
2021/07/01 19:25:16;;;;;;;;;;;;;;;10.28;84.66;99652.00;6251807;22;19969;-86
2021/07/01 19:27:45;;;;;;;;;;;;;;;10.29;85.07;99653.69;6278868;22;19935;-86
2021/07/01 19:30:14;;;;;;;;;;;;;;;10.32;85.05;99657.13;6252578;22;19916;-86
2021/07/01 19:32:40;;;;;;;;;;;;;;;10.32;84.81;99661.50;6253182;22;19915;-85
2021/07/01 19:35:05;;;;;;;;;;;;;;;10.26;85.38;99661.78;6255128;22;19942;-86
2021/07/01 19:37:34;;;;;;;;;;;;;;;10.26;85.21;99662.66;6254747;22;20169;-85
2021/07/01 19:40:03;;;;;;;;;;;;;;;10.30;85.40;99658.94;6280666;22;20174;-86